createdAt,value
2019-01-03T13:01:47.042Z,6
2019-01-03T13:02:45.014Z,6
2019-01-03T13:03:42.938Z,6
2019-01-03T13:04:41.029Z,6
2019-01-03T13:05:39.979Z,6
2019-01-03T13:06:38.415Z,6
2019-01-03T13:07:36.496Z,6
2019-01-03T13:08:34.586Z,6
2019-01-03T13:09:32.881Z,6
2019-01-03T13:10:31.842Z,6
2019-01-03T13:11:29.876Z,6
2019-01-03T13:12:27.883Z,6
2019-01-03T13:13:25.839Z,6
2019-01-03T13:14:24.895Z,6.1
2019-01-03T13:15:22.891Z,6.1
2019-01-03T13:16:20.822Z,6.1
2019-01-03T13:17:18.798Z,6.1
2019-01-03T13:18:17.945Z,6.1
2019-01-03T13:19:17.035Z,6.1
2019-01-03T13:20:15.125Z,6.1
2019-01-03T13:21:13.054Z,6.1
2019-01-03T13:22:11.083Z,6.1
2019-01-03T13:23:09.117Z,6.1
2019-01-03T13:24:08.420Z,6.1
2019-01-03T13:25:06.334Z,6.1
2019-01-03T13:26:04.785Z,6.1
2019-01-03T13:27:03.053Z,6.1
2019-01-03T13:28:01.121Z,6.1
2019-01-03T13:28:59.528Z,6.1
2019-01-03T13:29:57.464Z,6.1
2019-01-03T13:30:55.434Z,6.1
2019-01-03T13:31:53.631Z,6.1
2019-01-03T13:32:48.232Z,6.1
2019-01-03T13:33:46.555Z,6.1
2019-01-03T13:34:40.912Z,6.1
2019-01-03T13:35:38.920Z,6.1
2019-01-03T13:36:37.193Z,6.1
2019-01-03T13:37:35.365Z,6.1
2019-01-03T13:38:34.406Z,6.1
2019-01-03T13:39:32.344Z,6.1
2019-01-03T13:40:25.538Z,6.1
2019-01-03T13:41:18.429Z,6.1
2019-01-03T13:42:11.693Z,6.1
2019-01-03T13:43:04.668Z,6.1
2019-01-03T13:43:57.859Z,6.1
2019-01-03T13:44:50.857Z,6.1
2019-01-03T13:45:48.961Z,6
2019-01-03T13:46:41.914Z,6
2019-01-03T13:47:35.265Z,6
2019-01-03T13:48:29.749Z,6
2019-01-03T13:49:23.685Z,6
2019-01-03T13:50:16.752Z,6
2019-01-03T13:51:09.677Z,6
2019-01-03T13:52:02.655Z,6
2019-01-03T13:52:55.936Z,5.9
2019-01-03T13:53:48.872Z,5.9
2019-01-03T13:54:41.844Z,5.9
2019-01-03T13:55:34.813Z,5.9
2019-01-03T13:56:27.905Z,5.9
2019-01-03T13:57:20.847Z,5.9
2019-01-03T13:58:13.756Z,5.9
2019-01-03T13:59:06.634Z,5.9
2019-01-03T13:59:59.528Z,5.9
2019-01-03T14:00:52.476Z,5.8
2019-01-03T14:01:45.466Z,5.8
2019-01-03T14:02:38.516Z,5.8
2019-01-03T14:03:31.447Z,5.8
2019-01-03T14:04:24.412Z,5.8
2019-01-03T14:05:17.383Z,5.8
2019-01-03T14:06:10.307Z,5.8
2019-01-03T14:07:03.186Z,5.8
2019-01-03T14:07:56.104Z,5.8
2019-01-03T14:08:49.022Z,5.8
2019-01-03T14:09:41.920Z,5.8
2019-01-03T14:10:34.817Z,5.8
2019-01-03T14:11:28.955Z,5.8
2019-01-03T14:12:21.987Z,5.8
2019-01-03T14:13:16.019Z,5.8
2019-01-03T14:14:08.950Z,5.8
2019-01-03T14:15:01.909Z,5.8
2019-01-03T14:15:54.881Z,5.8
2019-01-03T14:16:47.883Z,5.8
2019-01-03T14:17:40.808Z,5.8
2019-01-03T14:18:33.714Z,5.8
2019-01-03T14:19:26.718Z,5.8
2019-01-03T14:20:19.662Z,5.8
2019-01-03T14:21:12.548Z,5.8
2019-01-03T14:22:05.439Z,5.8
2019-01-03T14:22:58.382Z,5.8
2019-01-03T14:23:51.315Z,5.8
2019-01-03T14:24:44.215Z,5.8
2019-01-03T14:25:37.189Z,5.8
2019-01-03T14:26:30.072Z,5.8
2019-01-03T14:27:23.108Z,5.8
2019-01-03T14:28:16.046Z,5.8
2019-01-03T14:29:08.999Z,5.8
2019-01-03T14:30:01.967Z,5.8
2019-01-03T14:30:54.849Z,5.8
2019-01-03T14:31:47.731Z,5.8
2019-01-03T14:32:40.638Z,5.8
2019-01-03T14:33:33.572Z,5.8
2019-01-03T14:34:26.661Z,5.8
2019-01-03T14:35:19.580Z,5.8
2019-01-03T14:36:12.463Z,5.8
2019-01-03T14:37:05.417Z,5.8
2019-01-03T14:37:58.402Z,5.8
2019-01-03T14:38:51.338Z,5.7
2019-01-03T14:39:44.299Z,5.7
2019-01-03T14:40:37.259Z,5.7
2019-01-03T14:41:30.228Z,5.7
2019-01-03T14:42:23.205Z,5.7
2019-01-03T14:43:16.178Z,5.7
2019-01-03T14:44:09.121Z,5.7
2019-01-03T14:45:02.105Z,5.7
2019-01-03T14:45:55.052Z,5.7
2019-01-03T14:46:47.917Z,5.7
2019-01-03T14:47:40.805Z,5.7
2019-01-03T14:48:33.849Z,5.7
2019-01-03T14:49:26.813Z,5.7
2019-01-03T14:50:19.707Z,5.7
2019-01-03T14:51:12.651Z,5.7
2019-01-03T14:52:05.526Z,5.7
2019-01-03T14:52:58.513Z,5.7
2019-01-03T14:53:51.455Z,5.6
2019-01-03T14:54:44.335Z,5.6
2019-01-03T14:55:37.319Z,5.6
2019-01-03T14:56:30.257Z,5.6
2019-01-03T14:57:23.220Z,5.6
2019-01-03T14:58:16.123Z,5.6
2019-01-03T14:59:09.198Z,5.6
2019-01-03T15:00:02.112Z,5.6
2019-01-03T15:00:55.088Z,5.6
2019-01-03T15:01:48.025Z,5.6
2019-01-03T15:02:40.976Z,5.5
2019-01-03T15:03:33.869Z,5.5
2019-01-03T15:04:26.883Z,5.5
2019-01-03T15:05:19.776Z,5.5
2019-01-03T15:06:12.678Z,5.5
2019-01-03T15:07:05.553Z,5.5
2019-01-03T15:07:58.440Z,5.5
2019-01-03T15:08:51.473Z,5.5
2019-01-03T15:09:44.499Z,5.5
2019-01-03T15:10:37.398Z,5.5
2019-01-03T15:11:30.448Z,5.5
2019-01-03T15:12:23.372Z,5.5
2019-01-03T15:13:16.427Z,5.5
2019-01-03T15:14:09.371Z,5.5
2019-01-03T15:15:02.357Z,5.4
2019-01-03T15:15:55.315Z,5.4
2019-01-03T15:16:48.211Z,5.4
2019-01-03T15:17:41.220Z,5.4
2019-01-03T15:18:34.093Z,5.4
2019-01-03T15:19:27.566Z,5.4
2019-01-03T15:20:20.516Z,5.4
2019-01-03T15:21:13.369Z,5.4
2019-01-03T15:22:06.307Z,5.4
2019-01-03T15:22:59.233Z,5.4
2019-01-03T15:23:52.111Z,5.4
2019-01-03T15:24:45.006Z,5.4
2019-01-03T15:25:37.946Z,5.4
2019-01-03T15:26:30.926Z,5.4
2019-01-03T15:27:24.820Z,5.3
2019-01-03T15:28:18.676Z,5.3
2019-01-03T15:29:11.614Z,5.3
2019-01-03T15:30:04.487Z,5.3
2019-01-03T15:30:57.391Z,5.3
2019-01-03T15:31:50.372Z,5.3
2019-01-03T15:32:43.472Z,5.3
2019-01-03T15:33:36.455Z,5.3
2019-01-03T15:34:29.459Z,5.3
2019-01-03T15:35:22.323Z,5.3
2019-01-03T15:36:15.233Z,5.3
2019-01-03T15:37:08.250Z,5.2
2019-01-03T15:38:01.149Z,5.2
2019-01-03T15:38:54.091Z,5.2
2019-01-03T15:39:46.975Z,5.2
2019-01-03T15:40:39.890Z,5.2
2019-01-03T15:41:33.867Z,5.2
2019-01-03T15:42:26.846Z,5.2
2019-01-03T15:43:19.771Z,5.2
2019-01-03T15:44:12.757Z,5.2
2019-01-03T15:45:05.775Z,5.2
2019-01-03T15:45:58.659Z,5.2
2019-01-03T15:46:51.632Z,5.2
2019-01-03T15:47:44.547Z,5.2
2019-01-03T15:48:37.466Z,5.2
2019-01-03T15:49:30.413Z,5.2
2019-01-03T15:50:23.381Z,5.2
2019-01-03T15:51:16.271Z,5.2
2019-01-03T15:52:09.122Z,5.2
2019-01-03T15:53:02.167Z,5.1
2019-01-03T15:53:55.062Z,5.1
2019-01-03T15:54:47.953Z,5.1
2019-01-03T15:55:40.980Z,5.1
2019-01-03T15:56:33.948Z,5.1
2019-01-03T15:57:26.815Z,5.1
2019-01-03T15:58:19.733Z,5.1
2019-01-03T15:59:12.664Z,5.1
2019-01-03T16:00:05.519Z,5.1
2019-01-03T16:00:58.517Z,5.1
2019-01-03T16:01:51.412Z,5.1
2019-01-03T16:02:44.345Z,5
2019-01-03T16:03:37.252Z,5
2019-01-03T16:04:30.206Z,5
2019-01-03T16:05:23.138Z,5
2019-01-03T16:06:16.119Z,5
2019-01-03T16:07:08.975Z,5
2019-01-03T16:08:01.862Z,5
2019-01-03T16:08:54.815Z,5
2019-01-03T16:09:47.699Z,5
2019-01-03T16:10:40.581Z,5
2019-01-03T16:11:33.533Z,5
2019-01-03T16:12:26.502Z,4.9
2019-01-03T16:13:19.403Z,5
2019-01-03T16:14:12.385Z,4.9
2019-01-03T16:15:05.686Z,4.9
2019-01-03T16:15:58.696Z,4.9
2019-01-03T16:16:51.739Z,4.9
2019-01-03T16:17:44.661Z,4.9
2019-01-03T16:18:37.603Z,4.9
2019-01-03T16:19:30.573Z,4.9
2019-01-03T16:20:23.442Z,4.9
2019-01-03T16:21:16.407Z,4.9
2019-01-03T16:22:09.308Z,4.9
2019-01-03T16:23:02.256Z,4.9
2019-01-03T16:23:55.140Z,4.9
2019-01-03T16:24:48.069Z,4.9
2019-01-03T16:25:40.981Z,4.9
2019-01-03T16:26:33.857Z,4.9
2019-01-03T20:28:58.349Z,4
2019-01-03T20:29:56.335Z,4
2019-01-03T20:30:54.251Z,4
2019-01-03T20:31:52.206Z,4
2019-01-03T20:32:50.180Z,4
2019-01-03T20:33:48.259Z,4
2019-01-03T20:34:46.174Z,4
2019-01-03T20:35:44.163Z,4
2019-01-03T20:36:42.109Z,4
2019-01-03T20:37:40.095Z,4
2019-01-03T20:38:38.197Z,4
2019-01-03T20:39:36.358Z,4
2019-01-03T20:40:34.341Z,4
2019-01-03T20:41:32.347Z,4
2019-01-03T20:42:30.278Z,4
2019-01-03T20:43:28.257Z,4
2019-01-03T20:44:31.297Z,3.9
2019-01-03T20:45:29.311Z,4
2019-01-03T20:46:27.281Z,4
2019-01-03T20:47:25.227Z,4
2019-01-03T20:48:23.147Z,4
2019-01-03T20:49:21.164Z,4
2019-01-03T20:50:19.106Z,4
2019-01-03T20:51:17.089Z,4
2019-01-03T20:52:15.057Z,4
2019-01-03T20:53:13.068Z,4
2019-01-03T20:54:11.042Z,3.9
2019-01-03T20:55:09.078Z,4
2019-01-03T20:56:07.067Z,4
2019-01-03T20:57:05.049Z,4
2019-01-03T20:58:02.971Z,4
2019-01-03T20:59:00.898Z,4
2019-01-03T20:59:58.864Z,4
2019-01-03T21:00:56.820Z,4
2019-01-03T21:01:54.814Z,4
2019-01-03T21:02:52.740Z,4
2019-01-03T21:03:50.827Z,4
2019-01-03T21:04:48.817Z,4
2019-01-03T21:05:46.757Z,4
2019-01-03T21:06:44.889Z,4
2019-01-03T21:07:42.847Z,4
2019-01-03T21:08:40.916Z,4
2019-01-03T21:09:38.888Z,4
2019-01-03T21:10:36.811Z,4
2019-01-03T21:11:34.747Z,4
2019-01-03T21:12:32.739Z,4
2019-01-03T21:13:30.765Z,3.9
2019-01-03T21:14:33.788Z,4
2019-01-03T21:15:26.789Z,3.9
2019-01-03T21:16:19.694Z,4
2019-01-03T21:17:13.427Z,3.9
2019-01-03T21:18:06.455Z,3.9
2019-01-03T21:18:59.420Z,3.9
2019-01-03T21:19:52.336Z,3.9
2019-01-03T21:20:45.289Z,3.9
2019-01-03T21:21:38.175Z,3.8
2019-01-03T21:22:31.061Z,3.9
2019-01-03T21:23:24.283Z,3.9
2019-01-03T21:24:17.435Z,3.9
2019-01-03T21:25:10.499Z,3.9
2019-01-03T21:26:03.461Z,3.8
2019-01-03T21:26:56.418Z,3.9
2019-01-03T21:27:49.397Z,3.9
2019-01-03T21:28:42.365Z,3.9
2019-01-03T21:29:35.312Z,3.9
2019-01-03T21:30:28.169Z,3.9
2019-01-03T21:31:21.137Z,3.9
2019-01-03T21:32:14.030Z,3.8
2019-01-03T21:33:06.968Z,3.9
2019-01-03T21:33:59.966Z,3.9
2019-01-03T21:34:52.901Z,3.8
2019-01-03T21:35:45.855Z,3.8
2019-01-03T21:36:38.736Z,3.8
2019-01-03T21:37:31.650Z,3.8
2019-01-03T21:38:24.599Z,3.8
2019-01-03T21:39:17.544Z,3.8
2019-01-03T21:40:10.441Z,3.8
2019-01-03T21:41:03.369Z,3.8
2019-01-03T21:41:56.246Z,3.8
2019-01-03T21:42:49.140Z,3.8
2019-01-03T21:43:42.022Z,3.8
2019-01-03T21:44:34.902Z,3.8
2019-01-03T21:45:27.797Z,3.7
2019-01-03T21:46:20.656Z,3.8
2019-01-03T21:47:13.561Z,3.8
2019-01-03T21:48:06.411Z,3.8
2019-01-03T21:48:59.321Z,3.8
2019-01-03T21:49:52.247Z,3.8
2019-01-03T21:50:45.165Z,3.8
2019-01-03T21:51:38.188Z,3.8
2019-01-03T21:52:31.055Z,3.7
2019-01-03T21:53:23.936Z,3.7
2019-01-03T21:54:18.794Z,3.7
2019-01-03T21:55:11.857Z,3.7
2019-01-03T21:56:04.830Z,3.7
2019-01-03T21:56:57.686Z,3.7
2019-01-03T21:57:50.571Z,3.7
2019-01-03T21:58:43.453Z,3.7
2019-01-03T21:59:36.517Z,3.7
2019-01-03T22:00:29.540Z,3.7
2019-01-03T22:01:22.437Z,3.7
2019-01-03T22:02:15.296Z,3.7
2019-01-03T22:03:08.180Z,3.7
2019-01-03T22:04:01.055Z,3.7
2019-01-03T22:04:54.098Z,3.7
2019-01-03T22:05:46.975Z,3.7
2019-01-03T22:06:39.985Z,3.7
2019-01-03T22:07:33.933Z,3.6
2019-01-03T22:08:26.982Z,3.7
2019-01-03T22:09:19.833Z,3.7
2019-01-03T22:10:12.854Z,3.7
2019-01-03T22:11:05.831Z,3.6
2019-01-03T22:11:58.839Z,3.7
2019-01-03T22:12:51.792Z,3.7
2019-01-03T22:13:44.824Z,3.6
2019-01-03T22:14:37.704Z,3.7
2019-01-03T22:15:30.580Z,3.7
2019-01-03T22:16:23.536Z,3.7
2019-01-03T22:17:16.445Z,3.7
2019-01-03T22:18:09.469Z,3.7
2019-01-03T22:19:02.338Z,3.7
2019-01-03T22:19:55.234Z,3.7
2019-01-03T22:20:48.203Z,3.7
2019-01-03T22:21:41.140Z,3.7
2019-01-03T22:22:34.047Z,3.6
2019-01-03T22:23:26.976Z,3.7
2019-01-03T22:24:19.869Z,3.7
2019-01-03T22:25:12.739Z,3.5
2019-01-03T22:26:05.687Z,3.7
2019-01-03T22:26:58.587Z,3.6
2019-01-03T22:27:51.493Z,3.6
2019-01-03T22:28:44.474Z,3.6
2019-01-03T22:29:38.261Z,3.6
2019-01-03T22:30:31.216Z,3.6
2019-01-03T22:31:24.127Z,3.6
2019-01-03T22:32:17.062Z,3.6
2019-01-03T22:33:09.968Z,3.6
2019-01-03T22:34:02.813Z,3.6
2019-01-03T22:34:55.710Z,3.6
2019-01-03T22:35:48.603Z,3.6
2019-01-03T22:36:41.702Z,3.6
2019-01-03T22:37:34.598Z,3.6
2019-01-03T22:38:27.580Z,3.6
2019-01-03T22:39:20.513Z,3.6
2019-01-03T22:40:13.384Z,3.5
2019-01-03T22:41:06.258Z,3.5
2019-01-03T22:41:59.256Z,3.5
2019-01-03T22:42:52.199Z,3.6
2019-01-03T22:43:45.121Z,3.5
2019-01-03T22:44:38.025Z,3.5
2019-01-03T22:45:30.898Z,3.5
2019-01-03T22:46:24.366Z,3.5
2019-01-03T22:47:17.316Z,3.5
2019-01-03T22:48:10.184Z,3.5
2019-01-03T22:49:03.086Z,3.5
2019-01-03T22:49:56.023Z,3.5
2019-01-03T22:50:48.979Z,3.5
2019-01-03T22:51:41.866Z,3.5
2019-01-03T22:52:34.960Z,3.5
2019-01-03T22:53:27.865Z,3.5
2019-01-03T22:54:20.786Z,3.4
2019-01-03T22:55:13.707Z,3.5
2019-01-03T22:56:06.833Z,3.5
2019-01-03T22:56:59.788Z,3.4
2019-01-03T22:57:52.771Z,3.4
2019-01-03T22:58:45.782Z,3.4
2019-01-03T22:59:38.777Z,3.4
2019-01-03T23:00:31.692Z,3.4
2019-01-03T23:01:24.678Z,3.4
2019-01-03T23:02:17.728Z,3.4
2019-01-03T23:03:10.693Z,3.4
2019-01-03T23:04:03.537Z,3.4
2019-01-03T23:04:56.696Z,3.4
2019-01-03T23:05:49.646Z,3.4
2019-01-03T23:06:42.573Z,3.4
2019-01-03T23:07:35.461Z,3.4
2019-01-03T23:08:28.350Z,3.4
2019-01-03T23:09:21.223Z,3.4
2019-01-03T23:10:14.142Z,3.4
2019-01-03T23:11:07.063Z,3.3
2019-01-03T23:11:59.946Z,3.3
2019-01-03T23:12:52.827Z,3.3
2019-01-03T23:13:45.760Z,3.3
2019-01-03T23:14:38.701Z,3.3
2019-01-03T23:15:31.907Z,3.3
2019-01-03T23:16:24.739Z,3.2
2019-01-03T23:17:17.635Z,3.3
2019-01-03T23:18:10.517Z,3.3
2019-01-03T23:19:03.551Z,3.3
2019-01-03T23:19:56.436Z,3.3
2019-01-03T23:20:49.317Z,3.3
2019-01-03T23:21:42.266Z,3.3
2019-01-03T23:22:35.144Z,3.3
2019-01-03T23:23:28.125Z,3.3
2019-01-03T23:24:21.255Z,3.3
2019-01-03T23:25:14.211Z,3.3
2019-01-03T23:26:07.173Z,3.3
2019-01-03T23:27:00.102Z,3.3
2019-01-03T23:27:52.980Z,3.2
2019-01-03T23:28:45.875Z,3.2
2019-01-03T23:29:38.837Z,3.2
2019-01-03T23:30:31.711Z,3.2
2019-01-03T23:31:24.600Z,3.2
2019-01-03T23:32:17.548Z,3.2
2019-01-03T23:33:10.509Z,3.2
2019-01-03T23:34:03.472Z,3.2
2019-01-03T23:34:56.392Z,3.2
2019-01-03T23:35:49.320Z,3.2
2019-01-03T23:36:42.204Z,3.1
2019-01-03T23:37:35.176Z,3.2
2019-01-03T23:38:28.112Z,3.2
2019-01-03T23:39:20.998Z,3.2
2019-01-03T23:40:13.882Z,3.2
2019-01-03T23:41:06.739Z,3.2
2019-01-03T23:41:59.748Z,3.2
2019-01-03T23:42:52.659Z,3.2
2019-01-03T23:43:45.701Z,3.2
2019-01-03T23:44:38.611Z,3.2
2019-01-03T23:45:31.699Z,3.2
2019-01-03T23:46:24.592Z,3.2
2019-01-03T23:47:17.504Z,3.2
2019-01-03T23:48:10.434Z,3.2
2019-01-03T23:49:03.324Z,3.2
2019-01-03T23:49:56.257Z,3.2
2019-01-03T23:50:49.144Z,3.2
2019-01-03T23:51:42.111Z,3.2
2019-01-03T23:52:35.145Z,3.2
2019-01-03T23:53:28.030Z,3.2
2019-01-03T23:54:20.905Z,3.2
2019-01-03T23:55:13.828Z,3.2
2019-01-03T23:56:06.765Z,3.2
2019-01-03T23:56:59.710Z,3.2
2019-01-03T23:57:52.618Z,3.1
2019-01-03T23:58:45.602Z,3.2
2019-01-03T23:59:38.522Z,3.2
